sensor_id;sensor_type;location;lat;lon;timestamp;pressure;altitude;pressure_sealevel;temperature;humidity
38912;BME280;28444;48.056;14.408;2023-09-12T00:00:38;97350.03;;;17.97;100.00
38912;BME280;28444;48.056;14.408;2023-09-12T00:03:05;97351.47;;;17.98;100.00
38912;BME280;28444;48.056;14.408;2023-09-12T00:05:31;97352.72;;;17.95;100.00
38912;BME280;28444;48.056;14.408;2023-09-12T00:07:58;97347.88;;;17.95;100.00
38912;BME280;28444;48.056;14.408;2023-09-12T00:10:24;97353.31;;;17.93;100.00
38912;BME280;28444;48.056;14.408;2023-09-12T00:12:53;97358.84;;;17.93;100.00
38912;BME280;28444;48.056;14.408;2023-09-12T00:15:20;97352.03;;;17.80;100.00
38912;BME280;28444;48.056;14.408;2023-09-12T00:17:47;97354.16;;;17.68;100.00
38912;BME280;28444;48.056;14.408;2023-09-12T00:20:15;97357.44;;;17.65;100.00
38912;BME280;28444;48.056;14.408;2023-09-12T00:22:41;97351.19;;;17.64;100.00
38912;BME280;28444;48.056;14.408;2023-09-12T00:25:08;97360.22;;;17.65;100.00
38912;BME280;28444;48.056;14.408;2023-09-12T00:27:35;97361.31;;;17.60;100.00
38912;BME280;28444;48.056;14.408;2023-09-12T00:30:02;97357.34;;;17.49;100.00
38912;BME280;28444;48.056;14.408;2023-09-12T00:32:29;97351.72;;;17.47;100.00
38912;BME280;28444;48.056;14.408;2023-09-12T00:34:56;97356.63;;;17.48;100.00
38912;BME280;28444;48.056;14.408;2023-09-12T00:37:22;97352.13;;;17.41;100.00
38912;BME280;28444;48.056;14.408;2023-09-12T00:39:49;97346.50;;;17.39;100.00
38912;BME280;28444;48.056;14.408;2023-09-12T00:42:15;97352.00;;;17.39;100.00
38912;BME280;28444;48.056;14.408;2023-09-12T00:44:42;97345.19;;;17.40;100.00
38912;BME280;28444;48.056;14.408;2023-09-12T00:47:10;97340.25;;;17.39;100.00
38912;BME280;28444;48.056;14.408;2023-09-12T00:49:38;97352.00;;;17.39;100.00
38912;BME280;28444;48.056;14.408;2023-09-12T00:52:06;97358.88;;;17.38;100.00
38912;BME280;28444;48.056;14.408;2023-09-12T00:54:33;97354.78;;;17.39;100.00
38912;BME280;28444;48.056;14.408;2023-09-12T00:57:00;97357.03;;;17.43;100.00
38912;BME280;28444;48.056;14.408;2023-09-12T00:59:27;97352.75;;;17.40;100.00
38912;BME280;28444;48.056;14.408;2023-09-12T01:01:54;97348.75;;;17.43;100.00
38912;BME280;28444;48.056;14.408;2023-09-12T01:04:21;97362.16;;;17.48;100.00
38912;BME280;28444;48.056;14.408;2023-09-12T01:07:00;97349.75;;;17.49;100.00
38912;BME280;28444;48.056;14.408;2023-09-12T01:09:27;97351.81;;;17.49;100.00
38912;BME280;28444;48.056;14.408;2023-09-12T01:11:54;97356.44;;;17.44;100.00
38912;BME280;28444;48.056;14.408;2023-09-12T01:14:22;97354.38;;;17.45;100.00
38912;BME280;28444;48.056;14.408;2023-09-12T01:16:48;97352.31;;;17.45;100.00
38912;BME280;28444;48.056;14.408;2023-09-12T01:19:16;97350.78;;;17.42;100.00
38912;BME280;28444;48.056;14.408;2023-09-12T01:24:38;97352.25;;;17.43;100.00
38912;BME280;28444;48.056;14.408;2023-09-12T01:27:33;97340.44;;;17.43;100.00
38912;BME280;28444;48.056;14.408;2023-09-12T01:30:03;97351.50;;;17.43;100.00
38912;BME280;28444;48.056;14.408;2023-09-12T01:32:34;97343.72;;;17.39;100.00
38912;BME280;28444;48.056;14.408;2023-09-12T01:35:02;97351.31;;;17.39;100.00
38912;BME280;28444;48.056;14.408;2023-09-12T01:37:31;97354.56;;;17.35;100.00
38912;BME280;28444;48.056;14.408;2023-09-12T01:39:58;97351.81;;;17.35;100.00
38912;BME280;28444;48.056;14.408;2023-09-12T01:42:28;97349.75;;;17.36;100.00
38912;BME280;28444;48.056;14.408;2023-09-12T01:44:57;97350.38;;;17.34;100.00
38912;BME280;28444;48.056;14.408;2023-09-12T01:47:25;97354.56;;;17.35;100.00
38912;BME280;28444;48.056;14.408;2023-09-12T01:49:55;97345.56;;;17.35;100.00
38912;BME280;28444;48.056;14.408;2023-09-12T01:52:23;97345.69;;;17.37;100.00
38912;BME280;28444;48.056;14.408;2023-09-12T01:54:51;97344.78;;;17.32;100.00
38912;BME280;28444;48.056;14.408;2023-09-12T01:57:19;97348.75;;;17.29;100.00
38912;BME280;28444;48.056;14.408;2023-09-12T01:59:49;97353.25;;;17.22;100.00
38912;BME280;28444;48.056;14.408;2023-09-12T02:02:16;97356.53;;;17.19;100.00
38912;BME280;28444;48.056;14.408;2023-09-12T02:07:38;97354.69;;;17.23;100.00
38912;BME280;28444;48.056;14.408;2023-09-12T02:10:05;97349.56;;;17.18;100.00
38912;BME280;28444;48.056;14.408;2023-09-12T02:12:32;97357.88;;;17.18;100.00
38912;BME280;28444;48.056;14.408;2023-09-12T02:14:59;97353.06;;;17.18;100.00
38912;BME280;28444;48.056;14.408;2023-09-12T02:17:25;97358.66;;;17.20;100.00
38912;BME280;28444;48.056;14.408;2023-09-12T02:19:52;97356.53;;;17.19;100.00
38912;BME280;28444;48.056;14.408;2023-09-12T02:22:19;97349.56;;;17.18;100.00
38912;BME280;28444;48.056;14.408;2023-09-12T02:24:45;97349.84;;;17.10;100.00
38912;BME280;28444;48.056;14.408;2023-09-12T02:27:12;97356.13;;;17.11;100.00
38912;BME280;28444;48.056;14.408;2023-09-12T02:29:40;97357.22;;;17.05;100.00
38912;BME280;28444;48.056;14.408;2023-09-12T02:32:07;97350.16;;;17.02;100.00
38912;BME280;28444;48.056;14.408;2023-09-12T02:34:34;97345.66;;;16.95;100.00
38912;BME280;28444;48.056;14.408;2023-09-12T02:37:01;97360.78;;;16.94;100.00
38912;BME280;28444;48.056;14.408;2023-09-12T02:39:27;97352.28;;;16.90;100.00
38912;BME280;28444;48.056;14.408;2023-09-12T02:41:54;97353.13;;;16.93;100.00
38912;BME280;28444;48.056;14.408;2023-09-12T02:44:21;97351.06;;;16.93;100.00
38912;BME280;28444;48.056;14.408;2023-09-12T02:46:47;97352.41;;;16.92;100.00
38912;BME280;28444;48.056;14.408;2023-09-12T02:49:15;97349.53;;;16.90;100.00
38912;BME280;28444;48.056;14.408;2023-09-12T02:51:42;97345.88;;;16.99;100.00
38912;BME280;28444;48.056;14.408;2023-09-12T02:54:09;97343.00;;;16.97;100.00
38912;BME280;28444;48.056;14.408;2023-09-12T02:56:35;97337.47;;;16.97;100.00
38912;BME280;28444;48.056;14.408;2023-09-12T02:59:02;97344.13;;;16.92;100.00
38912;BME280;28444;48.056;14.408;2023-09-12T03:01:29;97346.44;;;16.84;100.00
38912;BME280;28444;48.056;14.408;2023-09-12T03:03:57;97343.09;;;16.86;100.00
38912;BME280;28444;48.056;14.408;2023-09-12T03:06:24;97346.78;;;16.90;100.00
38912;BME280;28444;48.056;14.408;2023-09-12T03:08:51;97348.00;;;16.87;100.00
38912;BME280;28444;48.056;14.408;2023-09-12T03:11:17;97346.88;;;16.92;100.00
38912;BME280;28444;48.056;14.408;2023-09-12T03:13:44;97344.72;;;16.91;100.00
38912;BME280;28444;48.056;14.408;2023-09-12T03:16:12;97339.31;;;16.93;100.00
38912;BME280;28444;48.056;14.408;2023-09-12T03:18:39;97337.47;;;16.97;100.00
38912;BME280;28444;48.056;14.408;2023-09-12T03:21:06;97339.72;;;17.01;100.00
38912;BME280;28444;48.056;14.408;2023-09-12T03:23:33;97336.75;;;16.97;100.00
38912;BME280;28444;48.056;14.408;2023-09-12T03:26:04;97340.03;;;16.93;100.00
38912;BME280;28444;48.056;14.408;2023-09-12T03:28:31;97334.38;;;16.91;100.00
38912;BME280;28444;48.056;14.408;2023-09-12T03:31:09;97343.09;;;16.86;100.00
38912;BME280;28444;48.056;14.408;2023-09-12T03:33:38;97344.91;;;16.81;100.00
38912;BME280;28444;48.056;14.408;2023-09-12T03:36:06;97338.06;;;16.82;100.00
38912;BME280;28444;48.056;14.408;2023-09-12T03:38:34;97344.69;;;16.77;100.00
38912;BME280;28444;48.056;14.408;2023-09-12T03:41:01;97345.78;;;16.72;100.00
38912;BME280;28444;48.056;14.408;2023-09-12T03:43:28;97347.22;;;16.73;100.00
38912;BME280;28444;48.056;14.408;2023-09-12T03:45:54;97353.25;;;16.69;100.00
38912;BME280;28444;48.056;14.408;2023-09-12T03:48:21;97348.34;;;16.68;100.00
38912;BME280;28444;48.056;14.408;2023-09-12T03:50:48;97341.28;;;16.65;100.00
38912;BME280;28444;48.056;14.408;2023-09-12T03:53:15;97342.09;;;16.67;100.00
38912;BME280;28444;48.056;14.408;2023-09-12T03:55:42;97344.16;;;16.67;100.00
38912;BME280;28444;48.056;14.408;2023-09-12T03:58:09;97347.63;;;16.67;100.00
38912;BME280;28444;48.056;14.408;2023-09-12T04:00:36;97347.13;;;16.71;100.00
38912;BME280;28444;48.056;14.408;2023-09-12T04:03:03;97343.25;;;16.76;100.00
38912;BME280;28444;48.056;14.408;2023-09-12T04:05:30;97338.94;;;16.73;100.00
38912;BME280;28444;48.056;14.408;2023-09-12T04:07:56;97338.72;;;16.69;100.00
38912;BME280;28444;48.056;14.408;2023-09-12T04:10:23;97353.03;;;16.65;100.00
38912;BME280;28444;48.056;14.408;2023-09-12T04:12:49;97352.53;;;16.69;100.00
38912;BME280;28444;48.056;14.408;2023-09-12T04:15:16;97355.50;;;16.73;100.00
38912;BME280;28444;48.056;14.408;2023-09-12T04:17:43;97355.03;;;16.76;100.00
38912;BME280;28444;48.056;14.408;2023-09-12T04:20:10;97355.41;;;16.71;100.00
38912;BME280;28444;48.056;14.408;2023-09-12T04:22:43;97358.03;;;16.69;100.00
38912;BME280;28444;48.056;14.408;2023-09-12T04:25:10;97361.22;;;16.63;100.00
38912;BME280;28444;48.056;14.408;2023-09-12T04:27:37;97354.94;;;16.63;100.00
38912;BME280;28444;48.056;14.408;2023-09-12T04:30:04;97358.53;;;16.65;100.00
38912;BME280;28444;48.056;14.408;2023-09-12T04:32:31;97359.03;;;16.61;100.00
38912;BME280;28444;48.056;14.408;2023-09-12T04:34:59;97370.50;;;16.70;100.00
38912;BME280;28444;48.056;14.408;2023-09-12T04:37:26;97358.03;;;16.69;100.00
38912;BME280;28444;48.056;14.408;2023-09-12T04:39:52;97349.88;;;16.71;100.00
38912;BME280;28444;48.056;14.408;2023-09-12T04:42:19;97353.94;;;16.70;100.00
38912;BME280;28444;48.056;14.408;2023-09-12T04:44:46;97357.34;;;16.68;100.00
38912;BME280;28444;48.056;14.408;2023-09-12T04:47:13;97358.66;;;16.67;100.00
38912;BME280;28444;48.056;14.408;2023-09-12T04:49:39;97360.47;;;16.63;100.00
38912;BME280;28444;48.056;14.408;2023-09-12T04:52:06;97360.25;;;16.58;100.00
38912;BME280;28444;48.056;14.408;2023-09-12T04:54:33;97354.34;;;16.64;100.00
38912;BME280;28444;48.056;14.408;2023-09-12T04:57:00;97361.44;;;16.67;100.00
38912;BME280;28444;48.056;14.408;2023-09-12T04:59:26;97360.19;;;16.70;100.00
38912;BME280;28444;48.056;14.408;2023-09-12T05:01:53;97366.13;;;16.65;100.00
38912;BME280;28444;48.056;14.408;2023-09-12T05:04:20;97359.25;;;16.66;100.00
38912;BME280;28444;48.056;14.408;2023-09-12T05:06:46;97374.81;;;16.73;100.00
38912;BME280;28444;48.056;14.408;2023-09-12T05:09:14;97371.00;;;16.78;100.00
38912;BME280;28444;48.056;14.408;2023-09-12T05:11:40;97373.25;;;16.81;100.00
38912;BME280;28444;48.056;14.408;2023-09-12T05:14:07;97372.63;;;16.83;100.00
38912;BME280;28444;48.056;14.408;2023-09-12T05:16:34;97364.47;;;16.85;100.00
38912;BME280;28444;48.056;14.408;2023-09-12T05:19:01;97370.19;;;16.89;100.00
38912;BME280;28444;48.056;14.408;2023-09-12T05:21:28;97372.75;;;16.85;100.00
38912;BME280;28444;48.056;14.408;2023-09-12T05:23:54;97374.38;;;16.90;100.00
38912;BME280;28444;48.056;14.408;2023-09-12T05:26:21;97368.97;;;16.92;100.00
38912;BME280;28444;48.056;14.408;2023-09-12T05:28:47;97376.44;;;16.90;100.00
38912;BME280;28444;48.056;14.408;2023-09-12T05:31:14;97377.25;;;16.92;100.00
38912;BME280;28444;48.056;14.408;2023-09-12T05:33:41;97374.19;;;16.86;100.00
38912;BME280;28444;48.056;14.408;2023-09-12T05:36:07;97380.75;;;16.93;100.00
38912;BME280;28444;48.056;14.408;2023-09-12T05:38:34;97380.13;;;16.94;100.00
38912;BME280;28444;48.056;14.408;2023-09-12T05:41:00;97375.94;;;16.93;100.00
38912;BME280;28444;48.056;14.408;2023-09-12T05:43:28;97379.41;;;16.94;100.00
38912;BME280;28444;48.056;14.408;2023-09-12T05:45:55;97377.84;;;16.91;100.00
38912;BME280;28444;48.056;14.408;2023-09-12T05:48:23;97387.19;;;16.97;100.00
38912;BME280;28444;48.056;14.408;2023-09-12T05:50:50;97384.63;;;17.01;100.00
38912;BME280;28444;48.056;14.408;2023-09-12T05:53:17;97385.66;;;17.08;100.00
38912;BME280;28444;48.056;14.408;2023-09-12T05:55:43;97395.28;;;17.07;100.00
38912;BME280;28444;48.056;14.408;2023-09-12T05:58:11;97394.25;;;17.00;100.00
38912;BME280;28444;48.056;14.408;2023-09-12T06:00:38;97395.69;;;17.01;100.00
38912;BME280;28444;48.056;14.408;2023-09-12T06:03:04;97400.38;;;16.99;100.00
38912;BME280;28444;48.056;14.408;2023-09-12T06:05:31;97403.75;;;16.97;100.00
38912;BME280;28444;48.056;14.408;2023-09-12T06:07:58;97398.44;;;17.01;100.00
38912;BME280;28444;48.056;14.408;2023-09-12T06:10:25;97390.69;;;17.12;100.00
38912;BME280;28444;48.056;14.408;2023-09-12T06:12:51;97401.56;;;17.21;100.00
38912;BME280;28444;48.056;14.408;2023-09-12T06:15:18;97402.16;;;17.20;100.00
38912;BME280;28444;48.056;14.408;2023-09-12T06:17:45;97396.44;;;17.16;100.00
38912;BME280;28444;48.056;14.408;2023-09-12T06:20:11;97395.00;;;17.15;100.00
38912;BME280;28444;48.056;14.408;2023-09-12T06:22:38;97396.44;;;17.16;100.00
38912;BME280;28444;48.056;14.408;2023-09-12T06:25:05;97398.47;;;17.15;100.00
38912;BME280;28444;48.056;14.408;2023-09-12T06:27:32;97398.16;;;17.23;100.00
38912;BME280;28444;48.056;14.408;2023-09-12T06:29:59;97403.41;;;17.30;100.00
38912;BME280;28444;48.056;14.408;2023-09-12T06:32:26;97400.13;;;17.34;100.00
38912;BME280;28444;48.056;14.408;2023-09-12T06:34:52;97396.22;;;17.39;100.00
38912;BME280;28444;48.056;14.408;2023-09-12T06:37:19;97396.66;;;17.47;100.00
38912;BME280;28444;48.056;14.408;2023-09-12T06:39:49;97405.66;;;17.62;100.00
38912;BME280;28444;48.056;14.408;2023-09-12T06:42:16;97402.59;;;17.69;100.00
38912;BME280;28444;48.056;14.408;2023-09-12T06:44:43;97407.69;;;17.75;100.00
38912;BME280;28444;48.056;14.408;2023-09-12T06:47:10;97400.88;;;17.76;100.00
38912;BME280;28444;48.056;14.408;2023-09-12T06:49:36;97398.31;;;17.80;100.00
38912;BME280;28444;48.056;14.408;2023-09-12T06:52:04;97401.47;;;17.88;100.00
38912;BME280;28444;48.056;14.408;2023-09-12T06:54:32;97403.59;;;17.90;100.00
38912;BME280;28444;48.056;14.408;2023-09-12T06:56:59;97399.28;;;18.00;100.00
38912;BME280;28444;48.056;14.408;2023-09-12T06:59:27;97397.53;;;18.07;100.00
38912;BME280;28444;48.056;14.408;2023-09-12T07:01:54;97399.78;;;18.11;100.00
38912;BME280;28444;48.056;14.408;2023-09-12T07:04:21;97403.25;;;18.25;100.00
38912;BME280;28444;48.056;14.408;2023-09-12T07:06:48;97409.59;;;18.27;100.00
38912;BME280;28444;48.056;14.408;2023-09-12T07:09:14;97402.00;;;18.28;100.00
38912;BME280;28444;48.056;14.408;2023-09-12T07:11:41;97402.31;;;18.34;100.00
38912;BME280;28444;48.056;14.408;2023-09-12T07:14:10;97408.81;;;18.41;100.00
38912;BME280;28444;48.056;14.408;2023-09-12T07:16:37;97402.75;;;18.44;100.00
38912;BME280;28444;48.056;14.408;2023-09-12T07:19:04;97397.63;;;18.52;100.00
38912;BME280;28444;48.056;14.408;2023-09-12T07:21:31;97402.19;;;18.62;100.00
38912;BME280;28444;48.056;14.408;2023-09-12T07:23:59;97407.69;;;18.75;99.89
38912;BME280;28444;48.056;14.408;2023-09-12T07:26:25;97411.34;;;18.80;98.94
38912;BME280;28444;48.056;14.408;2023-09-12T07:28:54;97410.81;;;18.84;98.94
38912;BME280;28444;48.056;14.408;2023-09-12T07:31:21;97414.94;;;18.83;98.97
38912;BME280;28444;48.056;14.408;2023-09-12T07:33:48;97416.47;;;18.86;99.14
38912;BME280;28444;48.056;14.408;2023-09-12T07:36:14;97409.41;;;18.98;98.82
38912;BME280;28444;48.056;14.408;2023-09-12T07:38:41;97409.44;;;19.14;97.94
38912;BME280;28444;48.056;14.408;2023-09-12T07:41:09;97415.44;;;19.24;97.26
38912;BME280;28444;48.056;14.408;2023-09-12T07:43:35;97417.09;;;19.32;96.84
38912;BME280;28444;48.056;14.408;2023-09-12T07:46:02;97415.84;;;19.35;96.54
38912;BME280;28444;48.056;14.408;2023-09-12T07:48:29;97416.84;;;19.41;96.33
38912;BME280;28444;48.056;14.408;2023-09-12T07:50:56;97411.03;;;19.51;95.24
38912;BME280;28444;48.056;14.408;2023-09-12T07:53:23;97405.75;;;19.57;94.80
38912;BME280;28444;48.056;14.408;2023-09-12T07:55:49;97415.75;;;19.64;94.85
38912;BME280;28444;48.056;14.408;2023-09-12T07:58:17;97407.25;;;19.76;93.72
38912;BME280;28444;48.056;14.408;2023-09-12T08:00:48;97405.25;;;19.79;93.17
38912;BME280;28444;48.056;14.408;2023-09-12T08:03:15;97411.06;;;19.85;93.99
38912;BME280;28444;48.056;14.408;2023-09-12T08:05:42;97405.25;;;19.94;92.50
38912;BME280;28444;48.056;14.408;2023-09-12T08:08:09;97413.09;;;20.00;92.81
38912;BME280;28444;48.056;14.408;2023-09-12T08:10:37;97407.25;;;20.10;92.20
38912;BME280;28444;48.056;14.408;2023-09-12T08:13:03;97405.75;;;20.25;91.91
38912;BME280;28444;48.056;14.408;2023-09-12T08:15:30;97413.69;;;20.32;90.47
38912;BME280;28444;48.056;14.408;2023-09-12T08:17:57;97420.75;;;20.35;90.82
38912;BME280;28444;48.056;14.408;2023-09-12T08:20:23;97406.88;;;20.35;89.88
38912;BME280;28444;48.056;14.408;2023-09-12T08:22:50;97409.75;;;20.37;90.33
38912;BME280;28444;48.056;14.408;2023-09-12T08:25:17;97406.81;;;20.51;89.55
38912;BME280;28444;48.056;14.408;2023-09-12T08:27:43;97412.69;;;20.59;89.42
38912;BME280;28444;48.056;14.408;2023-09-12T08:30:11;97411.09;;;20.54;88.34
38912;BME280;28444;48.056;14.408;2023-09-12T08:32:40;97412.28;;;20.67;88.77
38912;BME280;28444;48.056;14.408;2023-09-12T08:35:11;97407.75;;;20.76;87.55
38912;BME280;28444;48.056;14.408;2023-09-12T08:37:41;97408.47;;;20.76;88.29
38912;BME280;28444;48.056;14.408;2023-09-12T08:40:11;97409.09;;;20.92;88.13
38912;BME280;28444;48.056;14.408;2023-09-12T08:42:42;97407.25;;;20.99;88.22
38912;BME280;28444;48.056;14.408;2023-09-12T08:45:16;97411.97;;;21.14;86.68
38912;BME280;28444;48.056;14.408;2023-09-12T08:47:53;97412.13;;;21.19;85.76
38912;BME280;28444;48.056;14.408;2023-09-12T08:50:22;97407.13;;;21.15;85.75
38912;BME280;28444;48.056;14.408;2023-09-12T08:52:50;97405.00;;;21.13;85.98
38912;BME280;28444;48.056;14.408;2023-09-12T08:55:34;97402.00;;;21.27;86.00
38912;BME280;28444;48.056;14.408;2023-09-12T08:58:05;97400.16;;;21.34;85.91
38912;BME280;28444;48.056;14.408;2023-09-12T09:00:33;97391.75;;;21.52;85.56
38912;BME280;28444;48.056;14.408;2023-09-12T09:03:01;97398.81;;;21.55;83.13
38912;BME280;28444;48.056;14.408;2023-09-12T09:05:29;97394.91;;;21.62;84.26
38912;BME280;28444;48.056;14.408;2023-09-12T09:07:58;97396.53;;;21.69;84.61
38912;BME280;28444;48.056;14.408;2023-09-12T09:10:25;97389.69;;;21.72;82.81
38912;BME280;28444;48.056;14.408;2023-09-12T09:13:13;97395.44;;;21.78;81.69
38912;BME280;28444;48.056;14.408;2023-09-12T09:15:40;97394.38;;;21.87;81.35
38912;BME280;28444;48.056;14.408;2023-09-12T09:18:09;97384.78;;;21.93;82.12
38912;BME280;28444;48.056;14.408;2023-09-12T09:20:38;97386.75;;;22.10;82.27
38912;BME280;28444;48.056;14.408;2023-09-12T09:23:06;97388.50;;;22.21;80.48
38912;BME280;28444;48.056;14.408;2023-09-12T09:25:39;97392.91;;;22.28;80.37
38912;BME280;28444;48.056;14.408;2023-09-12T09:28:20;97392.91;;;22.28;81.09
38912;BME280;28444;48.056;14.408;2023-09-12T09:30:49;97389.75;;;22.38;80.92
38912;BME280;28444;48.056;14.408;2023-09-12T09:33:18;97391.41;;;22.47;81.23
38912;BME280;28444;48.056;14.408;2023-09-12T09:35:48;97372.09;;;22.53;78.59
38912;BME280;28444;48.056;14.408;2023-09-12T09:38:19;97379.09;;;22.54;78.60
38912;BME280;28444;48.056;14.408;2023-09-12T09:40:46;97379.59;;;22.71;79.03
38912;BME280;28444;48.056;14.408;2023-09-12T09:43:13;97383.28;;;22.77;78.20
38912;BME280;28444;48.056;14.408;2023-09-12T09:45:46;97382.09;;;22.85;79.31
38912;BME280;28444;48.056;14.408;2023-09-12T09:48:20;97378.84;;;22.92;76.61
38912;BME280;28444;48.056;14.408;2023-09-12T09:50:48;97378.84;;;22.92;76.72
38912;BME280;28444;48.056;14.408;2023-09-12T09:53:15;97373.69;;;23.06;77.33
38912;BME280;28444;48.056;14.408;2023-09-12T09:55:42;97376.59;;;23.11;78.29
38912;BME280;28444;48.056;14.408;2023-09-12T09:58:14;97367.81;;;23.20;77.05
38912;BME280;28444;48.056;14.408;2023-09-12T10:00:43;97369.03;;;23.15;74.73
38912;BME280;28444;48.056;14.408;2023-09-12T10:03:12;97362.66;;;23.11;76.35
38912;BME280;28444;48.056;14.408;2023-09-12T10:05:40;97369.22;;;23.21;76.25
38912;BME280;28444;48.056;14.408;2023-09-12T10:08:09;97368.72;;;23.29;76.46
38912;BME280;28444;48.056;14.408;2023-09-12T10:10:38;97361.88;;;23.34;76.61
38912;BME280;28444;48.056;14.408;2023-09-12T10:13:05;97352.91;;;23.38;76.41
38912;BME280;28444;48.056;14.408;2023-09-12T10:15:34;97358.66;;;23.44;76.13
38912;BME280;28444;48.056;14.408;2023-09-12T10:18:09;97352.16;;;23.61;76.18
38912;BME280;28444;48.056;14.408;2023-09-12T10:20:55;97343.94;;;23.67;75.65
38912;BME280;28444;48.056;14.408;2023-09-12T10:23:37;97348.31;;;23.74;74.87
38912;BME280;28444;48.056;14.408;2023-09-12T10:26:13;97346.84;;;23.71;72.66
38912;BME280;28444;48.056;14.408;2023-09-12T10:28:40;97346.19;;;23.73;72.71
38912;BME280;28444;48.056;14.408;2023-09-12T10:31:11;97345.41;;;23.70;72.63
38912;BME280;28444;48.056;14.408;2023-09-12T10:33:38;97337.13;;;23.74;73.51
38912;BME280;28444;48.056;14.408;2023-09-12T10:36:06;97341.72;;;23.90;72.39
38912;BME280;28444;48.056;14.408;2023-09-12T10:38:42;97342.69;;;24.00;70.91
38912;BME280;28444;48.056;14.408;2023-09-12T10:41:14;97343.50;;;24.07;72.39
38912;BME280;28444;48.056;14.408;2023-09-12T10:43:43;97338.78;;;24.14;71.89
38912;BME280;28444;48.056;14.408;2023-09-12T10:46:13;97342.44;;;24.20;72.11
38912;BME280;28444;48.056;14.408;2023-09-12T10:48:40;97339.09;;;24.26;72.38
38912;BME280;28444;48.056;14.408;2023-09-12T10:51:08;97342.00;;;24.32;68.39
38912;BME280;28444;48.056;14.408;2023-09-12T10:53:36;97344.94;;;24.38;69.73
38912;BME280;28444;48.056;14.408;2023-09-12T11:01:37;97345.84;;;24.47;69.23
38912;BME280;28444;48.056;14.408;2023-09-12T11:04:30;97337.59;;;24.53;69.92
38912;BME280;28444;48.056;14.408;2023-09-12T11:07:00;97341.34;;;24.64;69.37
38912;BME280;28444;48.056;14.408;2023-09-12T11:09:27;97332.25;;;24.63;70.07
38912;BME280;28444;48.056;14.408;2023-09-12T11:12:03;97343.50;;;24.67;70.75
38912;BME280;28444;48.056;14.408;2023-09-12T11:14:31;97341.59;;;24.76;70.08
38912;BME280;28444;48.056;14.408;2023-09-12T11:20:02;97336.03;;;25.10;67.79
38912;BME280;28444;48.056;14.408;2023-09-12T11:22:31;97336.16;;;25.18;66.35
38912;BME280;28444;48.056;14.408;2023-09-12T11:25:02;97331.91;;;25.15;66.51
38912;BME280;28444;48.056;14.408;2023-09-12T11:27:43;97329.78;;;25.14;66.39
38912;BME280;28444;48.056;14.408;2023-09-12T11:30:11;97322.81;;;25.15;66.02
38912;BME280;28444;48.056;14.408;2023-09-12T11:32:38;97325.88;;;25.29;66.09
38912;BME280;28444;48.056;14.408;2023-09-12T11:35:08;97327.91;;;25.25;67.25
38912;BME280;28444;48.056;14.408;2023-09-12T11:37:35;97319.72;;;25.37;66.26
38912;BME280;28444;48.056;14.408;2023-09-12T11:40:26;97321.19;;;25.40;67.24
38912;BME280;28444;48.056;14.408;2023-09-12T11:42:53;97318.44;;;25.42;67.70
38912;BME280;28444;48.056;14.408;2023-09-12T11:45:20;97316.28;;;25.40;68.92
38912;BME280;28444;48.056;14.408;2023-09-12T11:47:48;97315.97;;;25.60;66.28
38912;BME280;28444;48.056;14.408;2023-09-12T11:50:35;97323.50;;;25.52;69.06
38912;BME280;28444;48.056;14.408;2023-09-12T11:53:08;97320.59;;;25.45;68.82
38912;BME280;28444;48.056;14.408;2023-09-12T11:55:42;97315.13;;;25.54;66.64
38912;BME280;28444;48.056;14.408;2023-09-12T11:58:13;97306.81;;;25.60;68.28
38912;BME280;28444;48.056;14.408;2023-09-12T12:00:49;97302.03;;;25.66;68.24
38912;BME280;28444;48.056;14.408;2023-09-12T12:03:18;97309.22;;;25.76;66.95
38912;BME280;28444;48.056;14.408;2023-09-12T12:05:45;97303.75;;;25.84;69.62
38912;BME280;28444;48.056;14.408;2023-09-12T12:08:14;97294.13;;;25.95;67.60
38912;BME280;28444;48.056;14.408;2023-09-12T12:10:57;97299.72;;;25.93;68.20
38912;BME280;28444;48.056;14.408;2023-09-12T12:13:25;97294.13;;;25.93;69.57
38912;BME280;28444;48.056;14.408;2023-09-12T12:15:53;97296.91;;;25.93;68.04
38912;BME280;28444;48.056;14.408;2023-09-12T12:18:19;97293.75;;;26.15;66.14
38912;BME280;28444;48.056;14.408;2023-09-12T12:20:46;97296.56;;;26.17;64.55
38912;BME280;28444;48.056;14.408;2023-09-12T12:23:13;97298.09;;;26.26;64.90
38912;BME280;28444;48.056;14.408;2023-09-12T12:25:40;97301.72;;;26.33;65.22
38912;BME280;28444;48.056;14.408;2023-09-12T12:28:06;97298.91;;;26.35;61.94
38912;BME280;28444;48.056;14.408;2023-09-12T12:30:35;97295.63;;;26.49;59.71
38912;BME280;28444;48.056;14.408;2023-09-12T12:33:07;97289.91;;;26.40;60.87
38912;BME280;28444;48.056;14.408;2023-09-12T12:36:04;97286.53;;;26.50;63.75
38912;BME280;28444;48.056;14.408;2023-09-12T12:38:36;97284.69;;;26.69;62.66
38912;BME280;28444;48.056;14.408;2023-09-12T12:41:10;97288.16;;;26.66;60.26
38912;BME280;28444;48.056;14.408;2023-09-12T12:43:40;97281.28;;;26.77;61.66
38912;BME280;28444;48.056;14.408;2023-09-12T12:46:11;97278.44;;;26.73;60.67
38912;BME280;28444;48.056;14.408;2023-09-12T12:48:43;97274.25;;;26.76;61.55
38912;BME280;28444;48.056;14.408;2023-09-12T12:51:23;97271.38;;;26.70;60.96
38912;BME280;28444;48.056;14.408;2023-09-12T12:53:55;97269.28;;;26.72;60.33
38912;BME280;28444;48.056;14.408;2023-09-12T12:56:26;97265.78;;;26.70;60.33
38912;BME280;28444;48.056;14.408;2023-09-12T12:58:58;97265.78;;;26.72;61.73
38912;BME280;28444;48.056;14.408;2023-09-12T13:01:25;97269.38;;;26.78;61.99
38912;BME280;28444;48.056;14.408;2023-09-12T13:03:57;97267.84;;;26.67;59.50
38912;BME280;28444;48.056;14.408;2023-09-12T13:06:24;97265.16;;;26.79;61.75